createdAt,value
2018-08-30T11:23:41.817Z,1011.94
2018-08-30T11:24:41.777Z,1011.88
2018-08-30T11:25:41.753Z,1011.91
2018-08-30T11:26:41.736Z,1011.83
2018-08-30T11:27:41.722Z,1011.85
2018-08-30T11:28:41.708Z,1011.92
2018-08-30T11:29:41.705Z,1011.88
2018-08-30T11:30:41.677Z,1011.85
2018-08-30T11:31:41.666Z,1011.91
2018-08-30T11:32:41.650Z,1011.88
2018-08-30T11:33:41.638Z,1011.90
2018-08-30T11:34:41.635Z,1011.99
2018-08-30T11:35:41.608Z,1011.96
2018-08-30T11:36:41.594Z,1011.99
2018-08-30T11:37:41.624Z,1012.03
2018-08-30T11:38:41.568Z,1012.00
2018-08-30T11:39:41.556Z,1012.12
2018-08-30T11:40:41.554Z,1012.00
2018-08-30T11:41:41.552Z,1012.15
2018-08-30T11:42:41.512Z,1012.10
2018-08-30T11:43:41.503Z,1012.10
2018-08-30T11:44:41.484Z,1012.10
2018-08-30T11:45:41.472Z,1012.10
2018-08-30T11:46:41.470Z,1012.06
2018-08-30T11:47:41.447Z,1011.96
2018-08-30T11:48:41.432Z,1012.06
2018-08-30T11:49:41.419Z,1012.03
2018-08-30T11:50:41.407Z,1012.13
2018-08-30T11:51:41.409Z,1012.08
2018-08-30T11:52:41.408Z,1012.11
2018-08-30T11:53:41.367Z,1012.07
2018-08-30T11:54:41.354Z,1011.98
2018-08-30T11:55:41.342Z,1012.10
2018-08-30T11:56:41.330Z,1012.14
2018-08-30T11:57:41.335Z,1012.13
2018-08-30T11:58:41.306Z,1012.10
2018-08-30T11:59:41.296Z,1012.04
2018-08-30T12:00:41.292Z,1012.01
2018-08-30T12:01:41.267Z,1011.94
2018-08-30T12:02:41.254Z,1011.96
2018-08-30T12:03:41.282Z,1012.01
2018-08-30T12:04:41.230Z,1012.13
2018-08-30T12:05:41.218Z,1011.96
2018-08-30T12:06:41.207Z,1011.98
2018-08-30T12:07:41.195Z,1012.12
2018-08-30T12:08:41.182Z,1012.02
2018-08-30T12:09:41.178Z,1012.08
2018-08-30T12:10:41.208Z,1012.06
2018-08-30T12:11:41.190Z,1012.08
2018-08-30T12:12:41.132Z,1012.05
2018-08-30T12:13:41.143Z,1012.22
2018-08-30T12:14:41.134Z,1012.23
2018-08-30T12:15:41.101Z,1012.22
2018-08-30T12:16:41.089Z,1012.18
2018-08-30T12:17:41.076Z,1012.26
2018-08-30T12:18:41.117Z,1012.31
2018-08-30T12:19:41.043Z,1012.33
2018-08-30T12:20:41.118Z,1012.29
2018-08-30T12:21:41.026Z,1012.26
2018-08-30T12:22:41.009Z,1012.36
2018-08-30T12:23:40.998Z,1012.35
2018-08-30T12:24:40.982Z,1012.32
2018-08-30T12:25:40.971Z,1012.24
2018-08-30T12:26:40.967Z,1012.21
2018-08-30T12:27:40.945Z,1012.20
2018-08-30T12:28:41.000Z,1012.19
2018-08-30T12:29:40.933Z,1012.17
2018-08-30T12:30:40.946Z,1012.33
2018-08-30T12:31:41.005Z,1012.21
2018-08-30T12:32:40.944Z,1012.19
2018-08-30T12:33:40.938Z,1012.24
2018-08-30T12:34:40.932Z,1012.25
2018-08-30T12:35:40.981Z,1012.19
2018-08-30T12:36:40.922Z,1012.21
2018-08-30T12:37:40.942Z,1012.19
2018-08-30T12:38:40.893Z,1012.23
2018-08-30T12:39:40.889Z,1012.23
2018-08-30T12:40:40.837Z,1012.19
2018-08-30T12:41:40.861Z,1012.25
2018-08-30T12:42:40.801Z,1012.30
2018-08-30T12:43:40.861Z,1012.45
2018-08-30T12:44:41.913Z,1012.42
2018-08-30T12:45:40.732Z,1012.39
2018-08-30T12:46:40.716Z,1012.36
2018-08-30T12:47:40.753Z,1012.43
2018-08-30T12:48:40.781Z,1012.48
2018-08-30T12:49:40.805Z,1012.55
2018-08-30T12:50:40.781Z,1012.37
2018-08-30T12:51:40.914Z,1012.37
2018-08-30T12:52:40.759Z,1012.44
2018-08-30T12:53:40.714Z,1012.29
2018-08-30T12:54:40.658Z,1012.54
2018-08-30T12:55:40.717Z,1012.52
2018-08-30T12:56:40.680Z,1012.46
2018-08-30T12:57:40.771Z,1012.48
2018-08-30T12:58:40.684Z,1012.50
2018-08-30T12:59:40.766Z,1012.46
2018-08-30T13:00:40.566Z,1012.52
2018-08-30T13:01:40.774Z,1012.42
2018-08-30T13:02:40.662Z,1012.32
2018-08-30T13:03:40.638Z,1012.45
2018-08-30T13:04:40.733Z,1012.25
2018-08-30T13:05:40.732Z,1012.42
2018-08-30T13:06:40.653Z,1012.45
2018-08-30T13:07:40.667Z,1012.52
2018-08-30T13:08:40.716Z,1012.52
2018-08-30T13:09:40.489Z,1012.43
2018-08-30T13:10:40.704Z,1012.45
2018-08-30T13:11:40.750Z,1012.57
2018-08-30T13:12:40.773Z,1012.51
2018-08-30T13:13:40.554Z,1012.51
2018-08-30T13:14:40.612Z,1012.45
2018-08-30T13:15:40.521Z,1012.45
2018-08-30T13:16:40.614Z,1012.49
2018-08-30T13:17:40.629Z,1012.48
2018-08-30T13:18:40.584Z,1012.47
2018-08-30T13:19:40.710Z,1012.50
2018-08-30T13:20:40.539Z,1012.45
2018-08-30T13:21:40.772Z,1012.32
2018-08-30T13:22:40.598Z,1012.48
2018-08-30T13:23:40.616Z,1012.44
2018-08-30T13:24:40.714Z,1012.41
2018-08-30T13:25:40.561Z,1012.41
2018-08-30T13:26:40.620Z,1012.43
2018-08-30T13:27:40.618Z,1012.43
2018-08-30T13:28:40.478Z,1012.47
2018-08-30T13:29:40.569Z,1012.36
2018-08-30T13:30:40.708Z,1012.43
2018-08-30T13:31:40.630Z,1012.42
2018-08-30T13:32:40.625Z,1012.46
2018-08-30T13:33:40.461Z,1012.43
2018-08-30T13:34:40.642Z,1012.37
2018-08-30T13:35:40.452Z,1012.44
2018-08-30T13:36:40.495Z,1012.40
2018-08-30T13:37:40.705Z,1012.42
2018-08-30T13:38:40.423Z,1012.48
2018-08-30T13:39:40.552Z,1012.50
2018-08-30T13:40:40.585Z,1012.46
2018-08-30T13:41:40.558Z,1012.47
2018-08-30T13:42:40.384Z,1012.49
2018-08-30T13:43:40.581Z,1012.27
2018-08-30T13:44:40.734Z,1012.35
2018-08-30T13:45:40.317Z,1012.46
2018-08-30T13:46:40.727Z,1012.53
2018-08-30T13:47:40.374Z,1012.48
2018-08-30T13:48:40.400Z,1012.49
2018-08-30T13:49:40.377Z,1012.46
2018-08-30T13:50:40.545Z,1012.49
2018-08-30T13:51:40.556Z,1012.56
2018-08-30T13:52:40.522Z,1012.51
2018-08-30T13:53:40.257Z,1012.52
2018-08-30T13:54:40.408Z,1012.57
2018-08-30T13:55:40.373Z,1012.71
2018-08-30T13:56:40.520Z,1013.44
2018-08-30T13:57:40.697Z,1013.94
2018-08-30T13:58:40.799Z,1013.69
2018-08-30T13:59:40.537Z,1013.34
2018-08-30T14:00:40.598Z,1013.01
2018-08-30T14:01:40.319Z,1013.03
2018-08-30T14:02:40.403Z,1012.98
2018-08-30T14:03:40.260Z,1012.49
2018-08-30T14:04:40.321Z,1012.98
2018-08-30T14:05:40.376Z,1012.53
2018-08-30T14:06:40.355Z,1012.96
2018-08-30T14:07:40.170Z,1012.67
2018-08-30T14:08:40.126Z,1013.01
2018-08-30T14:09:40.301Z,1013.05
2018-08-30T14:10:40.222Z,1012.99
2018-08-30T14:11:40.136Z,1012.44
2018-08-30T14:12:40.374Z,1012.41
2018-08-30T14:13:40.135Z,1012.50
2018-08-30T14:14:40.251Z,1012.89
2018-08-30T14:15:39.818Z,1013.00
2018-08-30T14:16:39.798Z,1012.52
2018-08-30T14:17:39.846Z,1012.87
2018-08-30T14:18:39.781Z,1012.88
2018-08-30T14:19:39.867Z,1012.39
2018-08-30T14:20:39.788Z,1012.40
2018-08-30T14:21:39.753Z,1012.95
2018-08-30T14:22:39.872Z,1012.49
2018-08-30T14:23:39.750Z,1012.44
2018-08-30T14:24:39.724Z,1012.57
2018-08-30T14:25:39.720Z,1012.77
2018-08-30T14:26:39.782Z,1012.85
2018-08-30T14:27:39.699Z,1012.93
2018-08-30T14:28:39.685Z,1013.05
2018-08-30T14:29:39.677Z,1013.01
2018-08-30T14:30:39.685Z,1013.05
2018-08-30T14:31:39.662Z,1013.03
2018-08-30T14:32:39.699Z,1012.50
2018-08-30T14:33:39.668Z,1012.46
2018-08-30T14:34:39.634Z,1012.91
2018-08-30T14:35:39.630Z,1012.49
2018-08-30T14:36:39.694Z,1012.93
2018-08-30T14:37:39.636Z,1012.90
2018-08-30T14:38:39.598Z,1012.93
2018-08-30T14:39:39.591Z,1012.99
2018-08-30T14:40:39.621Z,1012.96
2018-08-30T14:41:39.630Z,1012.94
2018-08-30T14:42:39.564Z,1012.96
2018-08-30T14:43:39.574Z,1012.89
2018-08-30T14:44:39.543Z,1012.91
2018-08-30T14:45:39.571Z,1012.91
2018-08-30T14:46:39.523Z,1012.90
2018-08-30T14:47:39.558Z,1012.92
2018-08-30T14:48:39.516Z,1012.88
2018-08-30T14:49:39.508Z,1012.88
2018-08-30T14:50:39.488Z,1012.90
2018-08-30T14:51:39.483Z,1012.80
2018-08-30T14:52:39.479Z,1012.78
2018-08-30T14:53:39.524Z,1012.75
2018-08-30T14:54:39.511Z,1012.72
2018-08-30T14:55:39.451Z,1012.72
2018-08-30T14:56:39.442Z,1012.64
2018-08-30T14:57:39.432Z,1012.79
2018-08-30T14:58:39.425Z,1012.90
2018-08-30T14:59:39.433Z,1012.90
2018-08-30T15:00:39.427Z,1012.74
2018-08-30T15:01:39.405Z,1012.68
2018-08-30T15:02:39.395Z,1012.60
2018-08-30T15:03:39.391Z,1012.59
2018-08-30T15:04:39.377Z,1012.56
2018-08-30T15:05:39.445Z,1012.52
2018-08-30T15:06:39.394Z,1012.55
2018-08-30T15:07:39.360Z,1012.43
2018-08-30T15:08:39.348Z,1012.50
2018-08-30T15:09:39.334Z,1012.43
2018-08-30T15:10:39.352Z,1012.46
2018-08-30T15:11:39.377Z,1012.44
2018-08-30T15:12:39.392Z,1012.54
2018-08-30T15:13:39.316Z,1012.40
2018-08-30T15:14:39.302Z,1012.44
2018-08-30T15:15:39.297Z,1012.40
2018-08-30T15:16:39.307Z,1012.44
2018-08-30T15:17:39.299Z,1012.39
2018-08-30T15:18:39.278Z,1012.47
2018-08-30T15:19:39.303Z,1012.44
2018-08-30T15:20:39.262Z,1012.37
2018-08-30T15:21:39.254Z,1012.33
2018-08-30T15:22:39.250Z,1012.34
2018-08-30T15:23:39.254Z,1012.40
2018-08-30T15:24:39.232Z,1012.36
2018-08-30T15:25:39.224Z,1012.29
2018-08-30T15:26:39.221Z,1012.34
2018-08-30T15:27:39.208Z,1012.33
2018-08-30T15:28:39.271Z,1012.40
2018-08-30T15:29:39.205Z,1012.36
2018-08-30T15:30:39.191Z,1012.36
2018-08-30T15:31:39.181Z,1012.39
2018-08-30T15:32:39.168Z,1012.35
2018-08-30T15:33:39.161Z,1012.37
2018-08-30T15:34:39.158Z,1012.41
2018-08-30T15:35:39.133Z,1012.42
2018-08-30T15:36:39.122Z,1012.59
2018-08-30T15:37:39.113Z,1012.61
2018-08-30T15:38:39.104Z,1012.63
2018-08-30T15:39:39.099Z,1012.63
2018-08-30T15:40:39.113Z,1012.67
2018-08-30T15:41:39.074Z,1012.77
2018-08-30T15:42:39.062Z,1012.74
2018-08-30T15:43:39.053Z,1012.78
2018-08-30T15:44:39.045Z,1012.79
2018-08-30T15:45:39.030Z,1012.79
2018-08-30T15:46:39.034Z,1012.81
2018-08-30T15:47:39.013Z,1012.72
2018-08-30T15:48:39.029Z,1012.63
2018-08-30T15:49:38.997Z,1012.49
2018-08-30T15:50:38.985Z,1012.49
2018-08-30T15:51:38.988Z,1012.46
2018-08-30T15:52:38.963Z,1012.53
2018-08-30T15:53:38.965Z,1012.67
2018-08-30T15:54:38.945Z,1012.63
2018-08-30T15:55:38.935Z,1012.71
2018-08-30T15:56:38.925Z,1012.66
2018-08-30T15:57:38.930Z,1012.69
2018-08-30T15:58:38.907Z,1012.64
2018-08-30T15:59:38.906Z,1012.64
2018-08-30T16:00:38.887Z,1012.60
2018-08-30T16:01:39.028Z,1012.55
2018-08-30T16:02:38.869Z,1012.47
2018-08-30T16:03:38.877Z,1012.50
2018-08-30T16:04:38.856Z,1012.62
2018-08-30T16:05:38.838Z,1012.46
2018-08-30T16:06:38.948Z,1012.54
2018-08-30T16:07:38.818Z,1012.49
2018-08-30T16:08:38.809Z,1012.47
2018-08-30T16:09:38.815Z,1012.49
2018-08-30T16:10:38.796Z,1012.54
2018-08-30T16:11:38.776Z,1012.60
2018-08-30T16:12:38.769Z,1012.55
2018-08-30T16:13:38.757Z,1012.62
2018-08-30T16:14:38.750Z,1012.59
2018-08-30T16:15:38.784Z,1012.54
2018-08-30T16:16:38.731Z,1012.56
2018-08-30T16:17:38.719Z,1012.51
2018-08-30T16:18:38.805Z,1012.53
2018-08-30T16:19:38.707Z,1012.52
2018-08-30T16:20:38.689Z,1012.52
2018-08-30T16:21:38.691Z,1012.52
2018-08-30T16:22:38.677Z,1012.52
2018-08-30T16:23:38.664Z,1012.49
2018-08-30T16:24:38.746Z,1012.51
2018-08-30T16:25:38.648Z,1012.45
2018-08-30T16:26:38.648Z,1012.46
2018-08-30T16:27:38.626Z,1012.48
2018-08-30T16:28:38.783Z,1012.41
2018-08-30T16:29:38.608Z,1012.42
2018-08-30T16:30:38.674Z,1012.41
2018-08-30T16:31:38.587Z,1012.45
2018-08-30T16:32:38.594Z,1012.36
2018-08-30T16:33:38.569Z,1012.46
2018-08-30T16:34:38.564Z,1012.47
2018-08-30T16:35:38.619Z,1012.46
2018-08-30T16:36:38.564Z,1012.40
2018-08-30T16:37:38.565Z,1012.40
2018-08-30T16:38:38.527Z,1012.38
2018-08-30T16:39:38.523Z,1012.38
2018-08-30T16:40:38.498Z,1012.39
2018-08-30T16:41:38.495Z,1012.33
2018-08-30T16:42:38.480Z,1012.42
2018-08-30T16:43:38.483Z,1012.46
2018-08-30T16:44:38.460Z,1012.50
2018-08-30T16:45:38.447Z,1012.47
2018-08-30T16:46:38.436Z,1012.52
2018-08-30T16:47:38.429Z,1012.52
2018-08-30T16:48:38.437Z,1012.57
2018-08-30T16:49:38.427Z,1012.54
2018-08-30T16:50:38.413Z,1012.52
2018-08-30T16:51:38.385Z,1012.51
2018-08-30T16:52:38.373Z,1012.47
2018-08-30T16:53:38.377Z,1012.50
2018-08-30T16:54:38.369Z,1012.56
2018-08-30T16:55:38.431Z,1012.51
2018-08-30T16:56:38.337Z,1012.52
2018-08-30T16:57:38.336Z,1012.58
2018-08-30T16:58:38.311Z,1012.45
2018-08-30T16:59:38.312Z,1012.37
2018-08-30T17:00:38.310Z,1012.34
2018-08-30T17:01:38.292Z,1012.28
2018-08-30T17:02:38.272Z,1012.20
2018-08-30T17:03:38.298Z,1012.22
2018-08-30T17:04:38.302Z,1012.20
2018-08-30T17:05:38.243Z,1012.17
2018-08-30T17:06:38.390Z,1012.20
2018-08-30T17:07:38.253Z,1012.21
2018-08-30T17:08:38.226Z,1012.17
2018-08-30T17:09:38.193Z,1012.14
2018-08-30T17:10:38.184Z,1012.16
2018-08-30T17:11:38.173Z,1012.15
2018-08-30T17:12:38.164Z,1012.13
2018-08-30T17:13:38.157Z,1012.15
2018-08-30T17:14:38.138Z,1012.15
2018-08-30T17:15:38.124Z,1012.17
2018-08-30T17:16:38.115Z,1012.21
2018-08-30T17:17:38.203Z,1012.22
2018-08-30T17:18:38.102Z,1012.25
2018-08-30T17:19:38.157Z,1012.18
2018-08-30T17:20:38.065Z,1012.15
2018-08-30T17:21:38.054Z,1012.13
2018-08-30T17:22:38.038Z,1012.12
2018-08-30T17:23:38.128Z,1012.13
2018-08-30T17:24:38.027Z,1012.16
2018-08-30T17:25:38.000Z,1012.18
2018-08-30T17:26:38.064Z,1012.12
2018-08-30T17:27:38.038Z,1012.13
2018-08-30T17:28:37.962Z,1012.15
2018-08-30T17:29:37.947Z,1012.15
2018-08-30T17:30:37.951Z,1012.15
2018-08-30T17:31:37.922Z,1012.12
2018-08-30T17:32:37.917Z,1012.15
2018-08-30T17:33:37.896Z,1012.15
2018-08-30T17:34:37.881Z,1012.13
2018-08-30T17:35:37.870Z,1012.14
2018-08-30T17:36:37.865Z,1012.15
2018-08-30T17:37:37.933Z,1012.14
2018-08-30T17:38:37.830Z,1012.13
2018-08-30T17:39:37.817Z,1012.11
2018-08-30T17:40:37.809Z,1012.11
2018-08-30T17:41:37.805Z,1012.08
2018-08-30T17:42:37.775Z,1012.08
2018-08-30T17:43:37.763Z,1012.05
2018-08-30T17:44:37.749Z,1012.09
2018-08-30T17:45:37.737Z,1012.08
2018-08-30T17:46:37.721Z,1012.07
2018-08-30T17:47:37.736Z,1012.12
2018-08-30T17:48:37.693Z,1012.15
2018-08-30T17:49:37.681Z,1012.12
2018-08-30T17:50:37.836Z,1012.16
2018-08-30T17:51:37.652Z,1012.13
2018-08-30T17:52:37.638Z,1012.12
2018-08-30T17:53:37.638Z,1012.16
2018-08-30T17:54:37.611Z,1012.17
2018-08-30T17:55:37.597Z,1012.14
2018-08-30T17:56:37.582Z,1012.19
2018-08-30T17:57:37.568Z,1012.15
2018-08-30T17:58:37.606Z,1012.16
2018-08-30T17:59:37.539Z,1012.17
2018-08-30T18:00:37.608Z,1012.19
2018-08-30T18:01:37.512Z,1012.19
2018-08-30T18:02:37.496Z,1012.14
2018-08-30T18:03:37.484Z,1012.16
2018-08-30T18:04:37.479Z,1012.19
2018-08-30T18:05:37.453Z,1012.17
2018-08-30T18:06:37.440Z,1012.17
2018-08-30T18:07:37.424Z,1012.18
2018-08-30T18:08:37.408Z,1012.19
2018-08-30T18:09:37.395Z,1012.22
2018-08-30T18:10:37.391Z,1012.20
2018-08-30T18:11:37.367Z,1012.20
2018-08-30T18:12:37.350Z,1012.26
2018-08-30T18:13:37.339Z,1012.27
2018-08-30T18:14:37.323Z,1012.27
2018-08-30T18:15:37.338Z,1012.28
2018-08-30T18:16:37.291Z,1012.27
2018-08-30T18:17:37.276Z,1012.31
2018-08-30T18:18:37.301Z,1012.31
2018-08-30T18:19:37.249Z,1012.29
2018-08-30T18:20:37.232Z,1012.30
2018-08-30T18:21:37.227Z,1012.32
2018-08-30T18:22:37.206Z,1012.32
2018-08-30T18:23:37.187Z,1012.34
2018-08-30T18:24:37.172Z,1012.29
2018-08-30T18:25:37.157Z,1012.31
2018-08-30T18:26:37.160Z,1012.34
2018-08-30T18:27:37.127Z,1012.31
2018-08-30T18:28:37.110Z,1012.34
2018-08-30T18:29:37.097Z,1012.31
2018-08-30T18:30:37.080Z,1012.31
2018-08-30T18:31:37.068Z,1012.34
2018-08-30T18:32:37.058Z,1012.33
2018-08-30T18:33:37.036Z,1012.38
2018-08-30T18:34:37.019Z,1012.37
2018-08-30T18:35:37.006Z,1012.38
2018-08-30T18:36:36.989Z,1012.38
2018-08-30T18:37:37.016Z,1012.39
2018-08-30T18:38:36.965Z,1012.39
2018-08-30T18:39:36.945Z,1012.42
2018-08-30T18:40:36.973Z,1012.46
2018-08-30T18:41:36.912Z,1012.43
2018-08-30T18:42:36.905Z,1012.48
2018-08-30T18:43:36.876Z,1012.50
2018-08-30T18:44:36.867Z,1012.52
2018-08-30T18:45:36.848Z,1012.51
2018-08-30T18:46:36.844Z,1012.59
2018-08-30T18:47:36.849Z,1012.58
2018-08-30T18:48:36.801Z,1012.57
2018-08-30T18:49:36.785Z,1012.61
2018-08-30T18:50:36.771Z,1012.64
2018-08-30T18:51:36.757Z,1012.59
2018-08-30T18:52:36.742Z,1012.65
2018-08-30T18:53:36.735Z,1012.63
2018-08-30T18:54:36.707Z,1012.65
2018-08-30T18:55:36.689Z,1012.66
2018-08-30T18:56:36.676Z,1012.67
2018-08-30T18:57:36.658Z,1012.62
2018-08-30T18:58:36.657Z,1012.63
2018-08-30T18:59:36.629Z,1012.62
2018-08-30T19:00:36.610Z,1012.63
2018-08-30T19:01:36.598Z,1012.65
2018-08-30T19:02:36.578Z,1012.61
2018-08-30T19:03:36.563Z,1012.64
2018-08-30T19:04:36.557Z,1012.64
2018-08-30T19:05:36.531Z,1012.67
2018-08-30T19:06:36.514Z,1012.71
2018-08-30T19:07:36.500Z,1012.68
2018-08-30T19:08:36.481Z,1012.69
2018-08-30T19:09:36.476Z,1012.71
2018-08-30T19:10:36.450Z,1012.73
2018-08-30T19:11:36.433Z,1012.73
2018-08-30T19:12:36.414Z,1012.73
2018-08-30T19:13:36.401Z,1012.74
2018-08-30T19:14:36.400Z,1012.70
2018-08-30T19:15:36.368Z,1012.69
2018-08-30T19:16:36.350Z,1012.67
2018-08-30T19:17:36.334Z,1012.70
2018-08-30T19:18:36.313Z,1012.67
2018-08-30T19:19:36.301Z,1012.74
2018-08-30T19:20:36.353Z,1012.74
2018-08-30T19:21:36.267Z,1012.73
2018-08-30T19:22:36.251Z,1012.78
2018-08-30T19:23:36.236Z,1012.77
2018-08-30T19:24:36.216Z,1012.74
2018-08-30T19:25:36.216Z,1012.78
2018-08-30T19:26:36.184Z,1012.77
2018-08-30T19:27:36.182Z,1012.74
2018-08-30T19:28:36.152Z,1012.78
2018-08-30T19:29:36.136Z,1012.79
2018-08-30T19:30:36.129Z,1012.82
2018-08-30T19:31:36.105Z,1012.81
2018-08-30T19:32:36.084Z,1012.85
2018-08-30T19:33:36.068Z,1012.82
2018-08-30T19:34:36.052Z,1012.85
2018-08-30T19:35:36.044Z,1012.81
2018-08-30T19:36:36.016Z,1012.81
2018-08-30T19:37:36.000Z,1012.84
2018-08-30T19:38:35.985Z,1012.89
2018-08-30T19:39:35.968Z,1012.88
2018-08-30T19:40:35.963Z,1012.88
2018-08-30T19:41:35.933Z,1012.87
2018-08-30T19:42:35.934Z,1012.89
2018-08-30T19:43:35.903Z,1012.89
2018-08-30T19:44:35.883Z,1012.90
2018-08-30T19:45:35.865Z,1012.90
2018-08-30T19:46:35.858Z,1012.92
2018-08-30T19:47:35.831Z,1012.91
2018-08-30T19:48:35.813Z,1012.91
2018-08-30T19:49:35.799Z,1012.92
2018-08-30T19:50:35.779Z,1012.94
2018-08-30T19:51:35.774Z,1012.92
2018-08-30T19:52:35.822Z,1012.97
2018-08-30T19:53:35.731Z,1012.93
2018-08-30T19:54:35.774Z,1012.98
2018-08-30T19:55:35.694Z,1012.98
2018-08-30T19:56:35.692Z,1012.93
2018-08-30T19:57:35.659Z,1012.88
2018-08-30T19:58:35.643Z,1012.90
2018-08-30T19:59:35.625Z,1012.87
2018-08-30T20:00:35.608Z,1012.88
2018-08-30T20:01:35.590Z,1012.88
2018-08-30T20:02:35.588Z,1012.90
2018-08-30T20:03:35.560Z,1012.88
2018-08-30T20:04:35.540Z,1012.88
2018-08-30T20:05:35.525Z,1012.89
2018-08-30T20:06:35.505Z,1012.87
2018-08-30T20:07:35.567Z,1012.89
2018-08-30T20:08:35.471Z,1012.86
2018-08-30T20:09:35.452Z,1012.87
2018-08-30T20:10:35.435Z,1012.86
2018-08-30T20:11:35.418Z,1012.87
2018-08-30T20:12:35.418Z,1012.91
2018-08-30T20:13:35.385Z,1012.86
2018-08-30T20:14:35.366Z,1012.87
2018-08-30T20:15:35.349Z,1012.84
2018-08-30T20:16:35.332Z,1012.82
2018-08-30T20:17:35.314Z,1012.85
2018-08-30T20:18:35.306Z,1012.84
2018-08-30T20:19:35.278Z,1012.81
2018-08-30T20:20:35.264Z,1012.83
2018-08-30T20:21:35.243Z,1012.81
2018-08-30T20:22:35.224Z,1012.82
2018-08-30T20:23:35.220Z,1012.79
2018-08-30T20:24:35.198Z,1012.81
2018-08-30T20:25:35.175Z,1012.77
2018-08-30T20:26:35.155Z,1012.78
2018-08-30T20:27:35.140Z,1012.76
2018-08-30T20:28:35.132Z,1012.75
2018-08-30T20:29:35.101Z,1012.81
2018-08-30T20:30:35.085Z,1012.82
2018-08-30T20:31:35.066Z,1012.84
2018-08-30T20:32:35.049Z,1012.84
2018-08-30T20:33:35.031Z,1012.79
2018-08-30T20:34:35.024Z,1012.80
2018-08-30T20:35:34.996Z,1012.78
2018-08-30T20:36:34.979Z,1012.79
2018-08-30T20:37:34.962Z,1012.82
2018-08-30T20:38:34.945Z,1012.83
2018-08-30T20:39:34.941Z,1012.82
2018-08-30T20:40:34.908Z,1012.86
2018-08-30T20:41:34.887Z,1012.90
2018-08-30T20:42:34.871Z,1012.86
2018-08-30T20:43:34.852Z,1012.89
2018-08-30T20:44:34.855Z,1012.93
2018-08-30T20:45:34.818Z,1012.93
2018-08-30T20:46:34.804Z,1012.90
2018-08-30T20:47:34.784Z,1012.89
2018-08-30T20:48:34.768Z,1012.91
2018-08-30T20:49:34.747Z,1012.93
2018-08-30T20:50:34.741Z,1012.93
2018-08-30T20:51:34.711Z,1012.90
2018-08-30T20:52:34.692Z,1012.95
2018-08-30T20:53:34.682Z,1012.97
2018-08-30T20:54:34.662Z,1012.96
2018-08-30T20:55:34.648Z,1012.93
2018-08-30T20:56:34.620Z,1012.97
2018-08-30T20:57:34.602Z,1012.97
2018-08-30T20:58:34.586Z,1012.97
2018-08-30T20:59:34.569Z,1012.99
2018-08-30T21:00:34.560Z,1013.01
2018-08-30T21:01:34.534Z,1012.99
2018-08-30T21:02:34.513Z,1012.98
2018-08-30T21:03:34.496Z,1012.97
2018-08-30T21:04:34.477Z,1012.98
2018-08-30T21:05:34.476Z,1013.02
2018-08-30T21:06:34.446Z,1013.01
2018-08-30T21:07:34.425Z,1013.01
2018-08-30T21:08:34.405Z,1013.01
2018-08-30T21:09:34.386Z,1013.01
2018-08-30T21:10:34.370Z,1013.05
2018-08-30T21:11:34.366Z,1013.03
2018-08-30T21:12:34.332Z,1013.02
2018-08-30T21:13:34.316Z,1013.03
2018-08-30T21:14:34.297Z,1012.99
2018-08-30T21:15:34.280Z,1012.97
2018-08-30T21:16:34.274Z,1013.02
2018-08-30T21:17:34.242Z,1013.03
2018-08-30T21:18:34.223Z,1012.99
2018-08-30T21:19:34.207Z,1013.01
2018-08-30T21:20:34.186Z,1013.01
2018-08-30T21:21:34.169Z,1013.04
2018-08-30T21:22:34.162Z,1013.04
2018-08-30T21:23:34.133Z,1013.06
2018-08-30T21:24:34.115Z,1013.01
2018-08-30T21:25:34.096Z,1013.01
2018-08-30T21:26:34.079Z,1013.05
2018-08-30T21:27:34.108Z,1013.07
2018-08-30T21:28:34.048Z,1013.00
2018-08-30T21:29:34.024Z,1012.99
2018-08-30T21:30:34.007Z,1012.93
2018-08-30T21:31:33.987Z,1012.96
2018-08-30T21:32:33.981Z,1013.00
2018-08-30T21:33:33.971Z,1012.99
2018-08-30T21:34:33.935Z,1012.98
2018-08-30T21:35:33.913Z,1012.96
2018-08-30T21:36:33.902Z,1012.95
2018-08-30T21:37:33.881Z,1012.98
2018-08-30T21:38:33.871Z,1013.01
2018-08-30T21:39:33.843Z,1013.01
2018-08-30T21:40:33.820Z,1013.03
2018-08-30T21:41:33.804Z,1013.05
2018-08-30T21:42:33.788Z,1013.08
2018-08-30T21:43:33.781Z,1013.05
2018-08-30T21:44:33.749Z,1013.06
2018-08-30T21:45:33.730Z,1013.10
2018-08-30T21:46:33.711Z,1013.09
2018-08-30T21:47:33.694Z,1013.11
2018-08-30T21:48:33.709Z,1013.14
2018-08-30T21:49:33.658Z,1013.12
2018-08-30T21:50:33.640Z,1013.11
2018-08-30T21:51:33.620Z,1013.14
2018-08-30T21:52:33.602Z,1013.11
2018-08-30T21:53:33.583Z,1013.11
2018-08-30T21:54:33.586Z,1013.10
2018-08-30T21:55:33.548Z,1013.13
2018-08-30T21:56:33.532Z,1013.12
2018-08-30T21:57:33.508Z,1013.17
2018-08-30T21:58:33.492Z,1013.20
2018-08-30T21:59:33.473Z,1013.23
2018-08-30T22:00:33.461Z,1013.22
2018-08-30T22:01:33.435Z,1013.16
2018-08-30T22:02:33.418Z,1013.19
2018-08-30T22:03:33.401Z,1013.20
2018-08-30T22:04:33.380Z,1013.26
2018-08-30T22:05:33.376Z,1013.24
2018-08-30T22:06:33.342Z,1013.23
2018-08-30T22:07:33.323Z,1013.23
2018-08-30T22:08:33.305Z,1013.29
2018-08-30T22:09:33.287Z,1013.24
2018-08-30T22:10:33.267Z,1013.26
2018-08-30T22:11:33.262Z,1013.28
2018-08-30T22:12:33.230Z,1013.31
2018-08-30T22:13:33.213Z,1013.29
2018-08-30T22:14:33.196Z,1013.27
2018-08-30T22:15:33.175Z,1013.28
2018-08-30T22:16:33.195Z,1013.29
2018-08-30T22:17:33.151Z,1013.31
2018-08-30T22:18:33.120Z,1013.28
2018-08-30T22:19:33.102Z,1013.27
2018-08-30T22:20:33.082Z,1013.30
2018-08-30T22:21:33.062Z,1013.27
2018-08-30T22:22:33.055Z,1013.29
2018-08-30T22:23:33.026Z,1013.31
2018-08-30T22:24:33.008Z,1013.29
2018-08-30T22:25:32.988Z,1013.26
2018-08-30T22:26:32.975Z,1013.29
2018-08-30T22:27:32.974Z,1013.28
2018-08-30T22:28:32.933Z,1013.27
2018-08-30T22:29:32.915Z,1013.30
2018-08-30T22:30:32.899Z,1013.31
2018-08-30T22:31:32.877Z,1013.28
2018-08-30T22:32:32.857Z,1013.29
2018-08-30T22:33:32.851Z,1013.31
2018-08-30T22:34:32.822Z,1013.32
2018-08-30T22:35:32.804Z,1013.35
2018-08-30T22:36:32.784Z,1013.29
2018-08-30T22:37:32.897Z,1013.34
2018-08-30T22:38:32.797Z,1013.38
2018-08-30T22:39:32.744Z,1013.34
2018-08-30T22:40:32.796Z,1013.31
2018-08-30T22:41:32.690Z,1013.38
2018-08-30T22:42:32.764Z,1013.36
2018-08-30T22:43:32.687Z,1013.32
2018-08-30T22:44:32.632Z,1013.33
2018-08-30T22:45:32.614Z,1013.32
2018-08-30T22:46:32.618Z,1013.35
2018-08-30T22:47:32.604Z,1013.34
2018-08-30T22:48:32.561Z,1013.32
2018-08-30T22:49:32.548Z,1013.34
2018-08-30T22:50:32.527Z,1013.35
2018-08-30T22:51:32.504Z,1013.34
2018-08-30T22:52:32.483Z,1013.30
2018-08-30T22:53:32.464Z,1013.34
2018-08-30T22:54:32.514Z,1013.34
2018-08-30T22:55:32.546Z,1013.31
2018-08-30T22:56:32.406Z,1013.34
2018-08-30T22:57:32.441Z,1013.33
2018-08-30T22:58:32.436Z,1013.32
2018-08-30T22:59:32.358Z,1013.32
2018-08-30T23:00:32.344Z,1013.26
2018-08-30T23:01:32.312Z,1013.28
2018-08-30T23:02:32.297Z,1013.30
2018-08-30T23:03:32.277Z,1013.26
2018-08-30T23:04:32.259Z,1013.25
2018-08-30T23:05:32.249Z,1013.26
2018-08-30T23:06:32.231Z,1013.26
2018-08-30T23:07:32.201Z,1013.25
2018-08-30T23:08:32.190Z,1013.26
2018-08-30T23:09:32.166Z,1013.26
2018-08-30T23:10:32.158Z,1013.27
2018-08-30T23:11:32.123Z,1013.23
2018-08-30T23:12:32.104Z,1013.27
2018-08-30T23:13:32.085Z,1013.25
2018-08-30T23:14:32.068Z,1013.26
2018-08-30T23:15:32.049Z,1013.26
2018-08-30T23:16:32.117Z,1013.23
2018-08-30T23:17:32.010Z,1013.26
2018-08-30T23:18:31.992Z,1013.22
2018-08-30T23:19:31.979Z,1013.21
2018-08-30T23:20:31.952Z,1013.24
2018-08-30T23:21:31.959Z,1013.23
2018-08-30T23:22:31.915Z,1013.23
2018-08-30T23:23:31.899Z,1013.22
2018-08-30T23:24:31.882Z,1013.23
2018-08-30T23:25:31.864Z,1013.20
2018-08-30T23:26:31.860Z,1013.19
2018-08-30T23:27:31.830Z,1013.20
2018-08-30T23:28:31.811Z,1013.20